createdAt,value
2018-10-09T00:00:36.561Z,7.67
2018-10-09T00:03:04.553Z,14.93
2018-10-09T00:05:32.558Z,8.40
2018-10-09T00:08:00.670Z,7.70
2018-10-09T00:10:28.665Z,10.27
2018-10-09T00:12:56.752Z,10.87
2018-10-09T00:15:24.757Z,5.13
2018-10-09T00:17:52.827Z,6.47
2018-10-09T00:20:26.783Z,5.90
2018-10-09T00:22:57.820Z,9.30
2018-10-09T00:25:26.090Z,6.17
2018-10-09T00:27:54.813Z,7.20
2018-10-09T00:30:23.169Z,6.50
2018-10-09T00:32:51.256Z,8.67
2018-10-09T00:35:19.255Z,6.67
2018-10-09T00:37:47.430Z,6.13
2018-10-09T00:40:15.963Z,5.03
2018-10-09T00:42:43.960Z,8.20
2018-10-09T00:45:12.014Z,6.80
2018-10-09T00:47:40.069Z,6.97
2018-10-09T00:50:08.456Z,4.80
2018-10-09T00:52:36.485Z,7.47
2018-10-09T00:55:04.734Z,4.90
2018-10-09T00:57:32.757Z,4.90
2018-10-09T01:00:00.796Z,6.60
2018-10-09T01:02:28.829Z,5.90
2018-10-09T01:04:56.874Z,6.87
2018-10-09T01:07:24.954Z,6.33
2018-10-09T01:09:53.225Z,5.40
2018-10-09T01:12:21.355Z,5.20
2018-10-09T01:14:49.701Z,8.10
2018-10-09T01:17:17.701Z,6.57
2018-10-09T01:19:45.837Z,5.30
2018-10-09T01:22:13.969Z,4.80
2018-10-09T01:24:42.049Z,6.20
2018-10-09T01:27:10.323Z,5.93
2018-10-09T01:29:38.313Z,6.80
2018-10-09T01:32:06.514Z,6.73
2018-10-09T01:34:34.566Z,7.87
2018-10-09T01:37:02.605Z,6.30
2018-10-09T01:39:30.629Z,6.30
2018-10-09T01:41:58.710Z,6.27
2018-10-09T01:44:26.758Z,7.27
2018-10-09T01:46:54.793Z,6.13
2018-10-09T01:49:22.777Z,5.43
2018-10-09T01:51:50.868Z,6.40
2018-10-09T01:54:18.865Z,7.23
2018-10-09T01:56:46.899Z,5.47
2018-10-09T01:59:14.928Z,4.27
2018-10-09T02:01:43.014Z,6.03
2018-10-09T02:04:11.056Z,7.23
2018-10-09T02:06:39.080Z,6.10
2018-10-09T02:09:08.045Z,9.17
2018-10-09T02:11:36.060Z,7.90
2018-10-09T02:14:04.453Z,9.20
2018-10-09T02:16:32.456Z,6.80
2018-10-09T02:19:00.523Z,5.47
2018-10-09T02:21:28.564Z,10.53
2018-10-09T02:23:56.605Z,6.70
2018-10-09T02:26:24.637Z,5.50
2018-10-09T02:28:52.711Z,6.77
2018-10-09T02:31:20.746Z,8.27
2018-10-09T02:33:48.844Z,7.70
2018-10-09T02:36:16.918Z,6.90
2018-10-09T02:38:44.964Z,6.93
2018-10-09T02:41:13.251Z,7.50
2018-10-09T02:43:54.238Z,9.73
2018-10-09T02:46:22.279Z,6.33
2018-10-09T02:48:50.315Z,7.43
2018-10-09T02:51:18.337Z,7.30
2018-10-09T02:53:46.372Z,9.33
2018-10-09T02:56:14.501Z,8.37
2018-10-09T02:58:42.581Z,8.50
2018-10-09T03:01:10.582Z,8.27
2018-10-09T03:03:38.617Z,11.70
2018-10-09T03:06:06.654Z,10.63
2018-10-09T03:08:34.677Z,14.50
2018-10-09T03:11:02.673Z,9.00
2018-10-09T03:13:30.968Z,9.30
2018-10-09T03:15:58.959Z,14.90
2018-10-09T03:18:26.972Z,8.20
2018-10-09T03:20:55.037Z,6.10
2018-10-09T03:23:23.320Z,7.67
2018-10-09T03:25:51.312Z,6.17
2018-10-09T03:28:19.384Z,8.20
2018-10-09T03:30:47.704Z,7.10
2018-10-09T03:33:15.733Z,6.93
2018-10-09T03:35:43.814Z,6.30
2018-10-09T03:38:11.811Z,6.40
2018-10-09T03:40:40.018Z,7.77
2018-10-09T03:43:08.157Z,13.50
2018-10-09T03:45:36.169Z,4.33
2018-10-09T03:48:04.202Z,9.00
2018-10-09T03:50:32.237Z,6.37
2018-10-09T03:53:00.277Z,8.10
2018-10-09T03:55:28.282Z,7.90
2018-10-09T03:57:56.301Z,9.40
2018-10-09T04:00:24.334Z,10.03
2018-10-09T04:02:52.330Z,7.07
2018-10-09T04:05:20.388Z,8.07
2018-10-09T04:07:48.635Z,7.13
2018-10-09T04:10:16.676Z,4.33
2018-10-09T04:12:44.821Z,7.60
2018-10-09T04:15:13.398Z,5.87
2018-10-09T04:17:41.386Z,9.27
2018-10-09T04:20:09.558Z,8.37
2018-10-09T04:22:37.589Z,5.47
2018-10-09T04:25:05.629Z,7.57
2018-10-09T04:27:33.725Z,6.60
2018-10-09T04:30:01.718Z,7.47
2018-10-09T04:32:29.889Z,7.50
2018-10-09T04:34:57.974Z,6.00
2018-10-09T04:37:26.022Z,10.00
2018-10-09T04:39:54.212Z,6.83
2018-10-09T04:42:22.239Z,8.40
2018-10-09T04:44:50.240Z,8.77
2018-10-09T04:47:18.277Z,9.37
2018-10-09T04:49:46.442Z,8.30
2018-10-09T04:52:14.557Z,10.60
2018-10-09T04:54:42.640Z,9.17
2018-10-09T04:57:10.640Z,6.90
2018-10-09T04:59:38.714Z,9.17
2018-10-09T05:02:06.740Z,6.50
2018-10-09T05:07:09.448Z,9.55
2018-10-09T05:09:37.493Z,7.73
2018-10-09T05:12:05.577Z,6.37
2018-10-09T05:14:33.611Z,8.80
2018-10-09T05:17:01.611Z,8.17
2018-10-09T05:19:29.942Z,6.77
2018-10-09T05:21:57.937Z,6.43
2018-10-09T05:24:26.009Z,8.27
2018-10-09T05:26:54.049Z,10.50
2018-10-09T05:29:22.046Z,10.90
2018-10-09T05:31:50.090Z,9.13
2018-10-09T05:34:18.240Z,9.03
2018-10-09T05:36:46.230Z,9.20
2018-10-09T05:39:14.249Z,8.97
2018-10-09T05:41:42.254Z,9.93
2018-10-09T05:44:10.310Z,9.97
2018-10-09T05:46:38.350Z,9.30
2018-10-09T05:49:06.438Z,18.13
2018-10-09T05:51:34.468Z,10.10
2018-10-09T05:54:02.465Z,9.17
2018-10-09T05:56:30.590Z,10.60
2018-10-09T05:58:58.622Z,10.53
2018-10-09T06:01:26.698Z,13.83
2018-10-09T06:03:55.170Z,9.70
2018-10-09T06:06:23.215Z,7.93
2018-10-09T06:08:51.313Z,12.50
2018-10-09T06:11:19.336Z,11.17
2018-10-09T06:13:47.481Z,10.53
2018-10-09T06:16:15.571Z,10.40
2018-10-09T06:18:43.962Z,11.07
2018-10-09T06:21:12.013Z,11.30
2018-10-09T06:23:40.000Z,8.77
2018-10-09T06:26:08.026Z,10.27
2018-10-09T06:28:36.125Z,10.87
2018-10-09T06:31:04.122Z,12.07
2018-10-09T06:33:32.190Z,11.03
2018-10-09T06:36:00.193Z,8.63
2018-10-09T06:38:28.253Z,11.67
2018-10-09T06:40:56.341Z,7.83
2018-10-09T06:43:24.417Z,8.30
2018-10-09T06:45:52.500Z,9.53
2018-10-09T06:48:20.495Z,8.90
2018-10-09T06:50:48.530Z,8.23
2018-10-09T06:53:16.575Z,10.27
2018-10-09T06:55:44.626Z,8.83
2018-10-09T06:58:12.617Z,10.07
2018-10-09T07:00:40.705Z,10.77
2018-10-09T07:03:08.714Z,12.87
2018-10-09T07:05:36.769Z,15.20
2018-10-09T07:08:04.862Z,9.70
2018-10-09T07:10:32.870Z,14.50
2018-10-09T07:13:00.931Z,16.33
2018-10-09T07:15:28.992Z,20.67
2018-10-09T07:18:03.525Z,17.07
2018-10-09T07:20:31.802Z,15.70
2018-10-09T07:22:59.806Z,17.37
2018-10-09T07:25:27.903Z,15.17
2018-10-09T07:27:56.062Z,30.53
2018-10-09T07:30:24.055Z,18.20
2018-10-09T07:32:52.105Z,25.20
2018-10-09T07:35:20.114Z,22.67
2018-10-09T07:37:48.217Z,20.73
2018-10-09T07:40:16.262Z,16.60
2018-10-09T07:42:44.281Z,25.80
2018-10-09T07:45:12.377Z,19.47
2018-10-09T07:47:40.410Z,20.50
2018-10-09T07:50:08.462Z,20.90
2018-10-09T07:52:36.481Z,22.03
2018-10-09T07:55:04.528Z,24.10
2018-10-09T07:57:32.792Z,23.53
2018-10-09T08:00:00.922Z,25.03
2018-10-09T08:02:28.963Z,31.63
2018-10-09T08:04:57.251Z,29.30
2018-10-09T08:07:25.337Z,28.47
2018-10-09T08:09:53.357Z,27.40
2018-10-09T08:12:21.501Z,34.10
2018-10-09T08:14:49.509Z,40.00
2018-10-09T08:17:17.549Z,38.43
2018-10-09T08:19:45.864Z,31.70
2018-10-09T08:22:13.911Z,32.27
2018-10-09T08:24:42.023Z,31.93
2018-10-09T08:27:10.106Z,34.80
2018-10-09T08:29:38.285Z,33.97
2018-10-09T08:32:06.366Z,34.80
2018-10-09T08:34:34.406Z,30.20
2018-10-09T08:37:02.421Z,35.60
2018-10-09T08:39:30.534Z,30.77
2018-10-09T08:41:58.571Z,34.27
2018-10-09T08:44:26.620Z,30.47
2018-10-09T08:46:54.662Z,33.60
2018-10-09T08:49:22.674Z,35.40
2018-10-09T08:51:50.803Z,30.17
2018-10-09T08:54:18.801Z,29.77
2018-10-09T08:56:46.807Z,24.70
2018-10-09T08:59:14.894Z,32.60
2018-10-09T09:01:42.893Z,28.33
2018-10-09T09:04:10.893Z,31.53
2018-10-09T09:06:39.028Z,31.77
2018-10-09T09:09:08.706Z,28.67
2018-10-09T09:11:36.775Z,27.37
2018-10-09T09:14:04.873Z,31.10
2018-10-09T09:16:32.915Z,34.40
2018-10-09T09:19:01.305Z,36.43
2018-10-09T09:21:29.602Z,35.30
2018-10-09T09:23:57.687Z,46.80
2018-10-09T09:26:25.784Z,31.23
2018-10-09T09:28:53.795Z,32.90
2018-10-09T09:31:21.798Z,36.27
2018-10-09T09:33:50.230Z,35.30
2018-10-09T09:36:18.229Z,29.90
2018-10-09T09:38:46.324Z,37.13
2018-10-09T09:41:14.335Z,36.97
2018-10-09T09:43:42.349Z,39.67
2018-10-09T09:46:10.477Z,36.57
2018-10-09T09:48:38.530Z,49.17
2018-10-09T09:51:06.605Z,48.23
2018-10-09T09:53:34.689Z,38.97
2018-10-09T09:56:02.815Z,31.27
2018-10-09T09:58:30.924Z,33.53
2018-10-09T10:01:03.450Z,33.37
2018-10-09T10:03:31.567Z,37.77
2018-10-09T10:05:59.590Z,35.67
2018-10-09T10:08:27.630Z,36.40
2018-10-09T10:10:55.686Z,50.60
2018-10-09T10:13:23.741Z,57.53
2018-10-09T10:15:51.885Z,37.97
2018-10-09T10:18:19.922Z,34.30
2018-10-09T10:20:47.965Z,39.73
2018-10-09T10:23:15.978Z,38.47
2018-10-09T10:25:43.983Z,34.90
2018-10-09T10:28:12.022Z,36.60
2018-10-09T10:30:40.059Z,54.97
2018-10-09T10:33:08.137Z,45.47
2018-10-09T10:35:36.276Z,34.57
2018-10-09T10:38:04.179Z,28.93
2018-10-09T10:40:32.217Z,29.77
2018-10-09T10:43:00.225Z,24.40
2018-10-09T10:45:28.261Z,27.93
2018-10-09T10:47:56.274Z,27.47
2018-10-09T10:50:24.412Z,30.87
2018-10-09T10:52:52.506Z,23.30
2018-10-09T10:55:20.592Z,22.27
2018-10-09T10:57:48.645Z,25.13
2018-10-09T11:00:16.663Z,24.90
2018-10-09T11:02:45.033Z,18.77
2018-10-09T11:05:12.993Z,23.03
2018-10-09T11:07:41.001Z,19.37
2018-10-09T11:10:09.498Z,18.47
2018-10-09T11:12:37.577Z,17.80
2018-10-09T11:15:05.683Z,14.13
2018-10-09T11:17:34.058Z,13.10
2018-10-09T11:20:02.125Z,18.10
2018-10-09T11:22:30.147Z,16.23
2018-10-09T11:24:58.211Z,11.50
2018-10-09T11:27:26.293Z,10.33
2018-10-09T11:29:54.372Z,17.40
2018-10-09T11:32:22.494Z,11.57
2018-10-09T11:34:50.550Z,10.50
2018-10-09T11:37:18.585Z,9.53
2018-10-09T11:39:46.854Z,11.20
2018-10-09T11:42:14.841Z,8.00
2018-10-09T11:44:42.886Z,8.30
2018-10-09T11:47:10.878Z,7.97
2018-10-09T11:49:38.874Z,7.23
2018-10-09T11:52:06.921Z,7.73
2018-10-09T11:54:34.922Z,8.37
2018-10-09T11:57:02.994Z,7.70
2018-10-09T11:59:30.994Z,8.67
2018-10-09T12:01:59.037Z,8.23
2018-10-09T12:04:27.350Z,5.90
2018-10-09T12:06:55.440Z,5.07
2018-10-09T12:09:23.441Z,11.03
2018-10-09T12:11:51.481Z,9.80
2018-10-09T12:14:19.486Z,9.20
2018-10-09T12:16:47.495Z,7.63
2018-10-09T12:19:15.552Z,12.47
2018-10-09T12:21:43.630Z,7.17
2018-10-09T12:24:12.028Z,9.20
2018-10-09T12:26:40.044Z,7.13
2018-10-09T12:29:08.091Z,10.27
2018-10-09T12:31:36.209Z,7.50
2018-10-09T12:34:04.457Z,12.70
2018-10-09T12:36:32.505Z,7.40
2018-10-09T12:39:00.492Z,7.03
2018-10-09T12:41:28.533Z,6.17
2018-10-09T12:43:56.603Z,7.13
2018-10-09T12:46:24.578Z,8.23
2018-10-09T12:48:52.761Z,5.67
2018-10-09T12:51:20.806Z,6.20
2018-10-09T12:53:48.829Z,8.83
2018-10-09T12:56:16.908Z,5.77
2018-10-09T12:58:45.009Z,11.30
2018-10-09T13:01:12.945Z,6.60
2018-10-09T13:03:40.958Z,4.90
2018-10-09T13:06:09.041Z,8.07
2018-10-09T13:08:37.127Z,8.00
2018-10-09T13:11:05.213Z,6.07
2018-10-09T13:13:33.210Z,7.00
2018-10-09T13:16:01.536Z,5.70
2018-10-09T13:18:29.565Z,6.77
2018-10-09T13:20:57.677Z,4.23
2018-10-09T13:23:25.639Z,5.50
2018-10-09T13:25:53.645Z,7.43
2018-10-09T13:28:22.005Z,3.80
2018-10-09T13:30:50.038Z,7.87
2018-10-09T13:33:18.077Z,7.17
2018-10-09T13:35:46.110Z,4.13
2018-10-09T13:38:14.166Z,6.67
2018-10-09T13:40:42.147Z,7.07
2018-10-09T13:43:10.205Z,8.50
2018-10-09T13:45:38.288Z,8.33
2018-10-09T13:48:06.379Z,6.10
2018-10-09T13:50:34.458Z,6.67
2018-10-09T13:53:02.745Z,7.67
2018-10-09T13:55:30.737Z,7.47
2018-10-09T13:57:58.737Z,4.63
2018-10-09T14:00:26.833Z,6.47
2018-10-09T14:02:54.804Z,4.23
2018-10-09T14:05:22.857Z,5.73
2018-10-09T14:07:50.941Z,5.43
2018-10-09T14:10:19.066Z,6.17
2018-10-09T14:12:47.014Z,5.87
2018-10-09T14:15:15.405Z,8.60
2018-10-09T14:17:43.401Z,4.93
2018-10-09T14:20:11.394Z,8.20
2018-10-09T14:22:39.463Z,4.07
2018-10-09T14:25:07.477Z,4.83
2018-10-09T14:27:35.517Z,6.97
2018-10-09T14:30:03.518Z,6.50
2018-10-09T14:32:31.554Z,3.80
2018-10-09T14:34:59.626Z,6.17
2018-10-09T14:37:27.650Z,5.87
2018-10-09T14:39:55.733Z,6.13
2018-10-09T14:42:23.817Z,14.93
2018-10-09T14:44:51.858Z,6.90
2018-10-09T14:47:19.893Z,5.03
2018-10-09T14:49:47.965Z,6.67
2018-10-09T14:52:15.991Z,6.47
2018-10-09T14:54:43.986Z,4.43
2018-10-09T14:57:12.021Z,3.87
2018-10-09T14:59:40.060Z,7.80
2018-10-09T15:02:08.082Z,4.93
2018-10-09T15:04:36.164Z,5.13
2018-10-09T15:07:04.348Z,4.47
2018-10-09T15:09:32.392Z,8.53
2018-10-09T15:12:00.413Z,6.53
2018-10-09T15:14:28.497Z,5.63
2018-10-09T15:16:56.507Z,5.80
2018-10-09T15:19:24.569Z,5.93
2018-10-09T15:21:52.658Z,6.53
2018-10-09T15:24:20.737Z,6.93
2018-10-09T15:26:48.765Z,6.57
2018-10-09T15:29:16.904Z,5.00
2018-10-09T15:31:44.938Z,5.40
2018-10-09T15:34:13.070Z,10.70
2018-10-09T15:36:41.153Z,9.07
2018-10-09T15:39:10.370Z,7.70
2018-10-09T15:41:38.540Z,8.43
2018-10-09T15:44:06.742Z,7.07
2018-10-09T15:46:34.845Z,9.50
2018-10-09T15:49:03.113Z,7.17
2018-10-09T15:51:31.813Z,20.27
2018-10-09T15:53:59.828Z,11.20
2018-10-09T15:56:27.885Z,7.77
2018-10-09T15:58:55.918Z,5.87
2018-10-09T16:01:23.959Z,9.33
2018-10-09T16:03:52.003Z,6.57
2018-10-09T16:06:20.113Z,15.37
2018-10-09T16:08:48.163Z,13.23
2018-10-09T16:11:16.159Z,8.23
2018-10-09T16:13:44.270Z,7.00
2018-10-09T16:16:12.346Z,5.50
2018-10-09T16:18:40.438Z,10.63
2018-10-09T16:21:08.515Z,5.40
2018-10-09T16:23:36.583Z,6.93
2018-10-09T16:26:04.682Z,6.20
2018-10-09T16:28:32.728Z,11.17
2018-10-09T16:31:00.857Z,10.57
2018-10-09T16:33:29.038Z,8.80
2018-10-09T16:35:57.066Z,12.63
2018-10-09T16:38:25.409Z,9.03
2018-10-09T16:40:53.472Z,7.33
2018-10-09T16:43:21.485Z,9.93
2018-10-09T16:45:49.526Z,11.63
2018-10-09T16:48:17.562Z,8.77
2018-10-09T16:50:45.590Z,7.60
2018-10-09T16:53:13.637Z,7.87
2018-10-09T16:55:41.618Z,8.40
2018-10-09T16:58:09.673Z,7.07
2018-10-09T17:00:37.750Z,6.73
2018-10-09T17:03:06.190Z,10.57
2018-10-09T17:05:34.194Z,8.57
2018-10-09T17:08:02.237Z,12.53
2018-10-09T17:10:30.238Z,12.00
2018-10-09T17:12:58.237Z,12.70
2018-10-09T17:15:26.428Z,10.30
2018-10-09T17:17:54.408Z,11.00
2018-10-09T17:20:22.488Z,9.23
2018-10-09T17:22:50.722Z,10.13
2018-10-09T17:25:18.815Z,9.90
2018-10-09T17:27:46.882Z,7.43
2018-10-09T17:30:14.974Z,10.40
2018-10-09T17:32:42.981Z,13.83
2018-10-09T17:35:11.060Z,12.20
2018-10-09T17:37:39.666Z,10.60
2018-10-09T17:40:08.015Z,9.70
2018-10-09T17:42:36.521Z,8.97
2018-10-09T17:45:04.526Z,10.03
2018-10-09T17:47:32.654Z,8.13
2018-10-09T17:50:00.675Z,12.40
2018-10-09T17:52:28.757Z,9.83
2018-10-09T17:54:56.807Z,8.47
2018-10-09T17:57:24.821Z,10.77
2018-10-09T17:59:52.903Z,8.73
2018-10-09T18:02:20.910Z,10.80
2018-10-09T18:04:48.974Z,10.97
2018-10-09T18:07:17.066Z,9.03
2018-10-09T18:09:45.143Z,8.17
2018-10-09T18:12:13.182Z,9.83
2018-10-09T18:14:41.291Z,8.57
2018-10-09T18:17:09.250Z,12.63
2018-10-09T18:19:37.273Z,11.60
2018-10-09T18:22:05.324Z,14.33
2018-10-09T18:24:33.451Z,14.03
2018-10-09T18:27:01.533Z,10.17
2018-10-09T18:29:29.615Z,13.13
2018-10-09T18:31:57.617Z,10.60
2018-10-09T18:34:25.706Z,10.43
2018-10-09T18:36:53.741Z,10.70
2018-10-09T18:39:21.749Z,8.60
2018-10-09T18:41:49.846Z,10.80
2018-10-09T18:44:18.121Z,7.97
2018-10-09T18:46:46.126Z,9.03
2018-10-09T18:49:14.147Z,10.60
2018-10-09T18:51:42.206Z,10.73
2018-10-09T18:54:10.210Z,8.97
2018-10-09T18:56:38.561Z,9.70
2018-10-09T18:59:06.625Z,9.07
2018-10-09T19:01:34.753Z,7.10
2018-10-09T19:04:02.998Z,9.67
2018-10-09T19:06:31.034Z,9.73
2018-10-09T19:08:59.103Z,10.27
2018-10-09T19:11:27.972Z,12.73
2018-10-09T19:13:56.763Z,8.83
2018-10-09T19:16:25.093Z,9.03
2018-10-09T19:18:53.125Z,8.40
2018-10-09T19:21:21.157Z,6.47
2018-10-09T19:23:49.287Z,9.17
2018-10-09T19:26:17.246Z,7.20
2018-10-09T19:28:45.294Z,9.27
2018-10-09T19:31:13.288Z,7.50
2018-10-09T19:33:41.332Z,10.70
2018-10-09T19:36:09.429Z,10.73
2018-10-09T19:38:37.509Z,8.70
2018-10-09T19:41:05.508Z,10.50
2018-10-09T19:43:33.680Z,15.60
2018-10-09T19:46:01.682Z,8.73
2018-10-09T19:48:30.046Z,12.07
2018-10-09T19:50:58.300Z,10.73
2018-10-09T19:53:26.163Z,8.57
2018-10-09T19:55:54.403Z,9.67
2018-10-09T19:58:22.489Z,10.33
2018-10-09T20:00:50.788Z,10.03
2018-10-09T20:03:19.060Z,9.37
2018-10-09T20:05:47.115Z,8.37
2018-10-09T20:08:15.167Z,10.20
2018-10-09T20:10:43.205Z,9.53
2018-10-09T20:13:11.213Z,9.93
2018-10-09T20:15:39.587Z,9.37
2018-10-09T20:18:07.681Z,12.63
2018-10-09T20:20:35.753Z,10.90
2018-10-09T20:23:03.847Z,11.57
2018-10-09T20:25:31.902Z,10.40
2018-10-09T20:27:59.918Z,9.43
2018-10-09T20:30:27.958Z,9.43
2018-10-09T20:32:56.073Z,10.27
2018-10-09T20:35:24.081Z,10.90
2018-10-09T20:37:52.494Z,10.00
2018-10-09T20:40:20.502Z,10.03
2018-10-09T20:42:48.522Z,9.40
2018-10-09T20:45:16.606Z,9.50
2018-10-09T20:47:45.505Z,9.57
2018-10-09T20:50:14.694Z,8.50
2018-10-09T20:52:42.793Z,9.43
2018-10-09T20:55:11.081Z,9.63
2018-10-09T20:57:39.378Z,13.60
2018-10-09T21:00:07.889Z,12.10
2018-10-09T21:02:36.065Z,13.97
2018-10-09T21:05:04.165Z,10.47
2018-10-09T21:07:32.189Z,12.67
2018-10-09T21:10:00.414Z,13.23
2018-10-09T21:12:28.494Z,12.93
2018-10-09T21:14:56.541Z,11.47
2018-10-09T21:17:24.666Z,12.13
2018-10-09T21:19:52.645Z,9.87
2018-10-09T21:22:20.735Z,9.67
2018-10-09T21:24:48.817Z,10.17
2018-10-09T21:27:17.211Z,10.50
2018-10-09T21:29:45.325Z,12.90
2018-10-09T21:32:13.374Z,9.93
2018-10-09T21:34:41.434Z,10.17
2018-10-09T21:37:09.945Z,12.27
2018-10-09T21:39:37.953Z,12.67
2018-10-09T21:42:06.006Z,14.50
2018-10-09T21:44:34.040Z,13.30
2018-10-09T21:47:02.040Z,14.10
2018-10-09T21:49:30.066Z,11.77
2018-10-09T21:51:58.158Z,14.63
2018-10-09T21:54:26.212Z,11.83
2018-10-09T21:56:54.210Z,9.93
2018-10-09T21:59:22.302Z,13.23
2018-10-09T22:01:57.245Z,15.50
2018-10-09T22:04:25.278Z,13.87
2018-10-09T22:06:53.269Z,11.50
2018-10-09T22:09:21.310Z,13.07
2018-10-09T22:11:49.357Z,12.30
2018-10-09T22:14:17.433Z,14.93
2018-10-09T22:16:45.541Z,17.07
2018-10-09T22:19:13.583Z,17.90
2018-10-09T22:21:41.594Z,11.87
2018-10-09T22:24:09.789Z,12.67
2018-10-09T22:26:37.929Z,15.40
2018-10-09T22:29:05.938Z,11.97
2018-10-09T22:31:33.969Z,11.10
2018-10-09T22:34:01.977Z,12.97
2018-10-09T22:36:30.082Z,13.87
2018-10-09T22:38:58.118Z,15.90
2018-10-09T22:41:26.118Z,16.13
2018-10-09T22:43:54.169Z,13.27
2018-10-09T22:46:22.177Z,15.13
2018-10-09T22:48:50.177Z,14.43
2018-10-09T22:51:18.213Z,15.50
2018-10-09T22:53:46.261Z,12.30
2018-10-09T22:56:14.306Z,15.20
2018-10-09T22:58:42.350Z,14.83
2018-10-09T23:01:10.366Z,12.97
2018-10-09T23:03:38.430Z,15.43
2018-10-09T23:06:06.521Z,15.40
2018-10-09T23:08:34.805Z,13.33
2018-10-09T23:11:02.902Z,13.80
2018-10-09T23:13:30.905Z,14.47
2018-10-09T23:15:59.307Z,15.07
2018-10-09T23:18:27.374Z,14.53
2018-10-09T23:20:55.421Z,14.60
2018-10-09T23:23:23.498Z,15.50
2018-10-09T23:25:51.493Z,14.47
2018-10-09T23:28:19.781Z,16.83
2018-10-09T23:30:47.867Z,15.77
2018-10-09T23:33:15.893Z,19.10
2018-10-09T23:35:44.870Z,18.60
2018-10-09T23:38:12.901Z,16.60
2018-10-09T23:40:40.909Z,21.17
2018-10-09T23:43:09.078Z,19.20
2018-10-09T23:45:37.092Z,14.90
2018-10-09T23:48:07.930Z,15.03
2018-10-09T23:50:38.065Z,14.37
2018-10-09T23:53:06.462Z,21.00
2018-10-09T23:55:34.845Z,16.00
2018-10-09T23:58:02.901Z,18.50
